createdAt,value
2022-08-29T00:01:30.860Z,74.29
2022-08-29T00:03:59.460Z,77.79
2022-08-29T00:06:27.686Z,75.74
2022-08-29T00:08:55.100Z,75.76
2022-08-29T00:11:22.834Z,75.50
2022-08-29T00:13:50.402Z,74.69
2022-08-29T00:16:18.992Z,75.10
2022-08-29T00:18:46.712Z,74.97
2022-08-29T00:21:14.193Z,74.59
2022-08-29T00:23:42.915Z,74.58
2022-08-29T00:26:11.110Z,72.48
2022-08-29T00:28:38.633Z,72.25
2022-08-29T00:31:06.187Z,72.13
2022-08-29T00:33:33.989Z,72.56
2022-08-29T00:36:02.714Z,73.27
2022-08-29T00:38:31.719Z,73.99
2022-08-29T00:40:59.473Z,75.13
2022-08-29T00:43:31.275Z,77.95
2022-08-29T00:46:18.160Z,79.06
2022-08-29T00:48:50.481Z,79.40
2022-08-29T00:51:22.585Z,87.27
2022-08-29T00:53:58.265Z,80.74
2022-08-29T00:56:26.481Z,83.21
2022-08-29T00:58:57.107Z,80.50
2022-08-29T01:01:25.198Z,81.62
2022-08-29T01:03:53.611Z,79.69
2022-08-29T01:06:22.311Z,84.88
2022-08-29T01:08:57.252Z,81.57
2022-08-29T01:11:47.379Z,80.32
2022-08-29T01:14:16.883Z,79.83
2022-08-29T01:16:46.134Z,80.45
2022-08-29T01:19:35.804Z,80.93
2022-08-29T01:22:07.776Z,83.97
2022-08-29T01:24:39.895Z,80.53
2022-08-29T01:27:08.176Z,78.93
2022-08-29T01:29:36.181Z,87.59
2022-08-29T01:32:04.281Z,83.43
2022-08-29T01:34:32.095Z,81.57
2022-08-29T01:37:03.457Z,79.88
2022-08-29T01:39:34.018Z,80.19
2022-08-29T01:42:06.363Z,80.56
2022-08-29T01:44:33.804Z,79.42
2022-08-29T01:47:03.407Z,77.59
2022-08-29T01:49:34.541Z,82.41
2022-08-29T01:52:04.149Z,78.92
2022-08-29T01:54:32.637Z,78.97
2022-08-29T01:57:01.598Z,78.81
2022-08-29T01:59:30.717Z,78.94
2022-08-29T02:02:00.856Z,80.05
2022-08-29T02:04:28.869Z,79.57
2022-08-29T02:06:56.537Z,79.51
2022-08-29T02:09:25.222Z,84.41
2022-08-29T02:11:55.082Z,81.44
2022-08-29T02:14:23.695Z,80.61
2022-08-29T02:16:51.129Z,79.16
2022-08-29T02:19:19.470Z,79.12
2022-08-29T02:21:46.986Z,79.59
2022-08-29T02:24:25.404Z,80.29
2022-08-29T02:26:55.310Z,80.22
2022-08-29T02:29:23.180Z,81.04
2022-08-29T02:31:50.675Z,79.57
2022-08-29T02:34:18.459Z,80.80
2022-08-29T02:36:49.023Z,81.54
2022-08-29T02:39:18.055Z,81.10
2022-08-29T02:41:46.006Z,81.24
2022-08-29T02:44:13.596Z,81.04
2022-08-29T02:46:41.157Z,80.58
2022-08-29T02:49:08.928Z,87.91
2022-08-29T02:51:36.359Z,84.76
2022-08-29T02:54:03.988Z,83.67
2022-08-29T02:56:31.654Z,83.49
2022-08-29T02:58:59.801Z,81.46
2022-08-29T03:01:27.691Z,80.65
2022-08-29T03:03:55.877Z,80.71
2022-08-29T03:06:23.626Z,81.81
2022-08-29T03:08:51.576Z,82.04
2022-08-29T03:11:21.961Z,80.02
2022-08-29T03:13:49.547Z,79.50
2022-08-29T03:16:17.287Z,82.63
2022-08-29T03:18:44.974Z,83.18
2022-08-29T03:21:17.158Z,81.72
2022-08-29T03:23:44.928Z,81.63
2022-08-29T03:26:12.422Z,85.76
2022-08-29T03:28:39.871Z,90.12
2022-08-29T03:31:07.761Z,89.19
2022-08-29T03:33:35.315Z,86.23
2022-08-29T03:36:03.520Z,86.79
2022-08-29T03:38:42.585Z,83.82
2022-08-29T03:41:10.010Z,82.61
2022-08-29T03:43:37.615Z,87.06
2022-08-29T03:46:05.371Z,86.01
2022-08-29T03:48:33.881Z,89.28
2022-08-29T03:51:01.359Z,85.73
2022-08-29T03:53:30.724Z,87.96
2022-08-29T03:55:58.435Z,91.82
2022-08-29T03:58:25.994Z,87.97
2022-08-29T04:00:53.717Z,89.92
2022-08-29T04:03:24.975Z,90.07
2022-08-29T04:05:59.199Z,90.58
2022-08-29T04:08:27.214Z,84.87
2022-08-29T04:10:54.680Z,87.26
2022-08-29T04:13:22.213Z,86.62
2022-08-29T04:15:50.492Z,88.09
2022-08-29T04:18:21.617Z,87.51
2022-08-29T04:20:50.244Z,85.64
2022-08-29T04:23:17.663Z,90.45
2022-08-29T04:25:45.137Z,90.73
2022-08-29T04:28:14.596Z,86.64
2022-08-29T04:30:51.206Z,86.13
2022-08-29T04:33:22.744Z,84.95
2022-08-29T04:35:51.853Z,81.45
2022-08-29T04:38:19.846Z,88.59
2022-08-29T04:40:48.030Z,86.23
2022-08-29T04:43:15.424Z,80.34
2022-08-29T04:45:42.910Z,82.18
2022-08-29T04:48:10.909Z,83.80
2022-08-29T04:50:39.138Z,85.37
2022-08-29T04:53:06.650Z,80.94
2022-08-29T04:55:34.365Z,79.84
2022-08-29T04:58:01.971Z,83.01
2022-08-29T05:00:31.502Z,82.17
2022-08-29T05:03:00.237Z,80.15
2022-08-29T05:05:28.068Z,85.30
2022-08-29T05:07:55.489Z,83.89
2022-08-29T05:10:23.510Z,80.53
2022-08-29T05:12:50.909Z,79.39
2022-08-29T05:15:18.763Z,83.06
2022-08-29T05:17:46.443Z,84.16
2022-08-29T05:20:14.164Z,79.71
2022-08-29T05:22:42.206Z,78.82
2022-08-29T05:25:17.390Z,78.84
2022-08-29T05:27:46.701Z,77.67
2022-08-29T05:30:16.397Z,77.96
2022-08-29T05:32:52.031Z,77.87
2022-08-29T05:35:19.830Z,84.45
2022-08-29T05:37:47.313Z,79.80
2022-08-29T05:40:14.735Z,77.78
2022-08-29T05:42:42.950Z,80.13
2022-08-29T05:45:11.016Z,82.15
2022-08-29T05:47:38.590Z,86.62
2022-08-29T05:50:07.549Z,82.67
2022-08-29T05:52:34.992Z,79.61
2022-08-29T05:55:02.526Z,77.99
2022-08-29T05:57:30.340Z,80.05
2022-08-29T05:59:58.053Z,83.74
2022-08-29T06:02:25.552Z,84.47
2022-08-29T06:04:53.552Z,87.19
2022-08-29T06:07:20.970Z,81.81
2022-08-29T06:09:48.568Z,83.20
2022-08-29T06:12:16.572Z,84.18
2022-08-29T06:14:50.287Z,87.22
2022-08-29T06:17:19.016Z,84.27
2022-08-29T06:19:50.119Z,87.37
2022-08-29T06:22:19.346Z,88.64
2022-08-29T06:24:47.489Z,84.42
2022-08-29T06:27:16.247Z,81.66
2022-08-29T06:29:44.088Z,85.61
2022-08-29T06:32:13.071Z,84.81
2022-08-29T06:34:40.887Z,79.86
2022-08-29T06:37:08.525Z,80.75
2022-08-29T06:39:36.457Z,83.16
2022-08-29T06:42:04.346Z,80.77
2022-08-29T06:44:32.059Z,82.22
2022-08-29T06:47:00.091Z,80.41
2022-08-29T06:49:28.063Z,81.27
2022-08-29T06:51:58.341Z,79.14
2022-08-29T06:54:28.659Z,79.03
2022-08-29T06:56:57.781Z,72.71
2022-08-29T06:59:25.748Z,79.57
2022-08-29T07:01:55.411Z,75.40
2022-08-29T07:04:23.220Z,76.45
2022-08-29T07:06:54.741Z,75.86
2022-08-29T07:09:22.546Z,77.61
2022-08-29T07:11:50.000Z,77.78
2022-08-29T07:14:18.247Z,74.98
2022-08-29T07:16:45.921Z,75.81
2022-08-29T07:19:13.340Z,73.13
2022-08-29T07:21:41.073Z,71.23
2022-08-29T07:24:08.774Z,75.25
2022-08-29T07:26:42.246Z,74.69
2022-08-29T07:29:13.826Z,71.80
2022-08-29T07:31:41.740Z,71.86
2022-08-29T07:34:09.787Z,74.56
2022-08-29T07:36:38.101Z,75.41
2022-08-29T07:39:08.832Z,72.22
2022-08-29T07:41:38.110Z,72.79
2022-08-29T07:44:05.921Z,75.35
2022-08-29T07:46:33.475Z,68.95
2022-08-29T07:49:01.027Z,66.67
2022-08-29T07:51:28.978Z,65.03
2022-08-29T07:53:57.369Z,65.72
2022-08-29T07:56:28.666Z,61.29
2022-08-29T07:58:57.900Z,58.86
2022-08-29T08:01:25.754Z,60.92
2022-08-29T08:03:54.297Z,60.25
2022-08-29T08:06:27.065Z,56.79
2022-08-29T08:08:55.590Z,54.78
2022-08-29T08:11:24.659Z,59.83
2022-08-29T08:13:55.974Z,54.50
2022-08-29T08:16:25.668Z,52.90
2022-08-29T08:18:53.872Z,55.61
2022-08-29T08:21:21.535Z,50.57
2022-08-29T08:23:49.463Z,50.68
2022-08-29T08:26:17.417Z,50.28
2022-08-29T08:28:45.348Z,57.13
2022-08-29T08:31:14.973Z,58.38
2022-08-29T08:33:44.838Z,53.41
2022-08-29T08:36:18.349Z,51.47
2022-08-29T08:38:46.890Z,56.96
2022-08-29T08:41:27.417Z,57.10
2022-08-29T08:44:00.613Z,59.27
2022-08-29T08:46:37.658Z,57.98
2022-08-29T08:49:27.404Z,53.66
2022-08-29T08:51:59.521Z,51.19
2022-08-29T08:54:29.676Z,53.59
2022-08-29T08:57:11.677Z,54.13
2022-08-29T08:59:45.399Z,56.76
2022-08-29T09:02:45.469Z,58.73
2022-08-29T09:05:39.417Z,57.63
2022-08-29T09:08:09.969Z,58.12
2022-08-29T09:10:58.581Z,55.29
2022-08-29T09:13:39.400Z,58.53
2022-08-29T09:16:29.295Z,58.58
2022-08-29T09:19:00.512Z,59.09
2022-08-29T09:21:41.033Z,60.41
2022-08-29T09:24:13.750Z,56.27
2022-08-29T09:26:41.521Z,57.45
2022-08-29T09:29:10.045Z,56.37
2022-08-29T09:31:37.757Z,57.89
2022-08-29T09:34:08.249Z,58.53
2022-08-29T09:36:47.773Z,60.16
2022-08-29T09:39:21.048Z,58.21
2022-08-29T09:41:53.139Z,57.01
2022-08-29T09:44:32.508Z,55.41
2022-08-29T09:47:12.516Z,54.17
2022-08-29T09:49:42.489Z,58.25
2022-08-29T09:52:14.387Z,57.29
2022-08-29T09:54:43.589Z,57.77
2022-08-29T09:57:25.819Z,55.90
2022-08-29T10:00:16.367Z,53.34
2022-08-29T10:02:49.934Z,53.42
2022-08-29T10:05:28.003Z,55.05
2022-08-29T10:07:55.803Z,52.47
2022-08-29T10:10:25.880Z,54.13
2022-08-29T10:13:08.669Z,54.31
2022-08-29T10:15:51.181Z,54.69
2022-08-29T10:19:04.657Z,53.01
2022-08-29T10:21:41.532Z,52.45
2022-08-29T10:24:19.586Z,51.95
2022-08-29T10:27:03.751Z,48.44
2022-08-29T10:29:48.096Z,51.00
2022-08-29T10:32:25.125Z,52.43
2022-08-29T10:35:14.307Z,52.47
2022-08-29T10:37:47.709Z,51.48
2022-08-29T10:40:21.803Z,47.54
2022-08-29T10:42:51.534Z,47.31
2022-08-29T10:45:36.281Z,46.42
2022-08-29T10:48:11.822Z,46.36
2022-08-29T10:50:46.897Z,44.94
2022-08-29T10:53:21.591Z,44.98
2022-08-29T10:56:05.895Z,49.22
2022-08-29T10:58:53.341Z,48.56
2022-08-29T11:01:27.770Z,48.42
2022-08-29T11:04:01.903Z,50.01
2022-08-29T11:06:34.843Z,50.91
2022-08-29T11:09:21.509Z,46.72
2022-08-29T11:12:18.110Z,45.38
2022-08-29T11:14:53.969Z,47.33
2022-08-29T11:17:26.092Z,46.99
2022-08-29T11:20:00.832Z,45.63
2022-08-29T11:22:40.479Z,45.71
2022-08-29T11:25:18.222Z,45.66
2022-08-29T11:28:04.425Z,45.88
2022-08-29T11:30:59.290Z,46.63
2022-08-29T11:33:37.818Z,45.28
2022-08-29T11:36:08.645Z,46.56
2022-08-29T11:39:00.266Z,46.89
2022-08-29T11:41:35.731Z,47.53
2022-08-29T11:44:40.014Z,45.20
2022-08-29T11:47:41.118Z,45.65
2022-08-29T11:50:14.766Z,47.73
2022-08-29T11:53:20.886Z,46.75
2022-08-29T11:56:13.419Z,46.32
2022-08-29T11:58:48.095Z,46.60
2022-08-29T12:01:24.897Z,46.29
2022-08-29T12:03:56.844Z,46.71
2022-08-29T12:06:55.945Z,48.04
2022-08-29T12:09:41.401Z,47.11
2022-08-29T12:12:15.580Z,44.66
2022-08-29T12:14:50.569Z,45.15
2022-08-29T12:17:23.360Z,45.48
2022-08-29T12:19:56.863Z,46.12
2022-08-29T12:22:52.119Z,45.72
2022-08-29T12:25:45.898Z,45.76
2022-08-29T12:28:16.093Z,46.76
2022-08-29T12:30:47.140Z,45.70
2022-08-29T12:33:17.475Z,45.27
2022-08-29T12:36:07.786Z,44.97
2022-08-29T12:39:07.172Z,43.38
2022-08-29T12:41:51.326Z,45.25
2022-08-29T12:44:25.230Z,44.84
2022-08-29T12:47:02.805Z,43.48
2022-08-29T12:49:39.747Z,44.64
2022-08-29T12:52:28.664Z,44.29
2022-08-29T12:54:57.897Z,44.40
2022-08-29T12:57:36.911Z,43.07
2022-08-29T13:00:11.417Z,44.01
2022-08-29T13:02:39.253Z,45.27
2022-08-29T13:05:26.914Z,46.34
2022-08-29T13:08:01.787Z,44.20
2022-08-29T13:10:29.757Z,45.27
2022-08-29T13:13:06.995Z,43.06
2022-08-29T13:15:34.938Z,41.79
2022-08-29T13:18:03.346Z,42.29
2022-08-29T13:20:43.216Z,43.56
2022-08-29T13:23:24.301Z,44.45
2022-08-29T13:26:02.068Z,45.57
2022-08-29T13:28:43.127Z,44.98
2022-08-29T13:31:16.766Z,46.34
2022-08-29T13:33:59.624Z,45.92
2022-08-29T13:36:27.038Z,44.75
2022-08-29T13:39:26.478Z,44.85
2022-08-29T13:42:02.940Z,45.19
2022-08-29T13:44:45.574Z,44.26
2022-08-29T13:47:16.080Z,45.55
2022-08-29T13:49:43.806Z,45.52
2022-08-29T13:52:11.836Z,47.12
2022-08-29T13:54:43.067Z,44.77
2022-08-29T13:57:18.933Z,46.94
2022-08-29T13:59:46.606Z,45.50
2022-08-29T14:02:14.981Z,44.25
2022-08-29T14:04:47.975Z,44.14
2022-08-29T14:07:22.073Z,45.07
2022-08-29T14:09:49.670Z,45.59
2022-08-29T14:12:17.977Z,45.11
2022-08-29T14:14:45.634Z,44.55
2022-08-29T14:17:18.391Z,45.37
2022-08-29T14:19:47.011Z,44.29
2022-08-29T14:22:15.140Z,43.28
2022-08-29T14:24:42.813Z,44.13
2022-08-29T14:27:10.485Z,42.61
2022-08-29T14:29:38.482Z,42.95
2022-08-29T14:32:05.968Z,44.03
2022-08-29T14:34:33.392Z,43.47
2022-08-29T14:37:01.617Z,43.35
2022-08-29T14:39:30.552Z,43.97
2022-08-29T14:41:57.974Z,44.30
2022-08-29T14:44:25.920Z,41.69
2022-08-29T14:46:53.354Z,41.16
2022-08-29T14:49:25.294Z,41.66
2022-08-29T14:51:53.040Z,41.38
2022-08-29T14:54:20.494Z,41.67
2022-08-29T14:56:49.459Z,43.08
2022-08-29T14:59:19.407Z,41.75
2022-08-29T15:01:52.978Z,43.54
2022-08-29T15:04:35.410Z,43.24
2022-08-29T15:07:11.944Z,43.46
2022-08-29T15:09:41.734Z,42.75
2022-08-29T15:12:10.443Z,43.51
2022-08-29T15:14:38.116Z,44.59
2022-08-29T15:17:06.372Z,44.49
2022-08-29T15:22:23.035Z,43.99
2022-08-29T15:24:51.356Z,43.36
2022-08-29T15:27:27.346Z,42.46
2022-08-29T15:29:56.854Z,45.07
2022-08-29T15:32:25.884Z,45.28
2022-08-29T15:34:53.394Z,45.94
2022-08-29T15:37:22.040Z,44.21
2022-08-29T15:39:54.997Z,43.21
2022-08-29T15:42:28.969Z,43.13
2022-08-29T15:44:58.667Z,42.43
2022-08-29T15:47:27.173Z,42.36
2022-08-29T15:49:54.946Z,42.70
2022-08-29T15:52:22.419Z,42.93
2022-08-29T15:54:50.739Z,44.64
2022-08-29T15:57:19.549Z,43.54
2022-08-29T15:59:58.188Z,45.37
2022-08-29T16:02:28.047Z,43.19
2022-08-29T16:04:57.357Z,43.25
2022-08-29T16:07:29.093Z,43.02
2022-08-29T16:10:05.759Z,44.45
2022-08-29T16:12:39.809Z,43.77
2022-08-29T16:15:09.993Z,42.95
2022-08-29T16:17:39.254Z,44.70
2022-08-29T16:20:11.530Z,43.71
2022-08-29T16:22:40.366Z,43.98
2022-08-29T16:25:09.913Z,43.95
2022-08-29T16:27:37.729Z,44.62
2022-08-29T16:30:06.636Z,44.02
2022-08-29T16:32:34.642Z,44.33
2022-08-29T16:35:02.393Z,44.53
2022-08-29T16:37:29.912Z,44.21
2022-08-29T16:39:59.276Z,44.28
2022-08-29T16:42:30.449Z,44.63
2022-08-29T16:44:59.915Z,45.03
2022-08-29T16:47:28.006Z,44.17
2022-08-29T16:49:55.658Z,44.10
2022-08-29T16:52:23.495Z,46.40
2022-08-29T16:54:52.067Z,47.31
2022-08-29T16:57:21.808Z,47.41
2022-08-29T16:59:49.566Z,46.89
2022-08-29T17:02:17.354Z,46.59
2022-08-29T17:04:46.639Z,47.38
2022-08-29T17:07:14.577Z,47.63
2022-08-29T17:09:42.030Z,48.55
2022-08-29T17:12:09.861Z,48.29
2022-08-29T17:14:37.677Z,48.21
2022-08-29T17:17:05.339Z,47.66
2022-08-29T17:19:33.739Z,47.88
2022-08-29T17:22:01.649Z,47.62
2022-08-29T17:24:29.118Z,48.59
2022-08-29T17:26:57.626Z,48.72
2022-08-29T17:29:25.436Z,48.56
2022-08-29T17:31:52.930Z,48.40
2022-08-29T17:34:20.348Z,49.23
2022-08-29T17:36:49.727Z,49.40
2022-08-29T17:39:17.229Z,49.59
2022-08-29T17:41:50.622Z,49.03
2022-08-29T17:44:18.458Z,49.07
2022-08-29T17:46:46.328Z,49.04
2022-08-29T17:49:14.068Z,49.95
2022-08-29T17:51:42.149Z,49.73
2022-08-29T17:54:14.931Z,49.50
2022-08-29T17:56:55.234Z,50.09
2022-08-29T17:59:23.967Z,50.27
2022-08-29T18:01:52.512Z,50.40
2022-08-29T18:04:20.708Z,49.62
2022-08-29T18:06:48.411Z,49.51
2022-08-29T18:09:15.857Z,49.06
2022-08-29T18:11:47.706Z,49.54
2022-08-29T18:14:16.889Z,49.66
2022-08-29T18:16:44.803Z,50.79
2022-08-29T18:19:13.569Z,50.56
2022-08-29T18:21:41.655Z,50.72
2022-08-29T18:24:13.870Z,51.45
2022-08-29T18:26:42.621Z,51.39
2022-08-29T18:29:11.144Z,50.88
2022-08-29T18:31:40.867Z,50.82
2022-08-29T18:34:09.553Z,51.02
2022-08-29T18:36:40.049Z,51.09
2022-08-29T18:39:08.505Z,50.58
2022-08-29T18:41:36.077Z,50.83
2022-08-29T18:44:04.014Z,51.25
2022-08-29T18:46:32.450Z,51.25
2022-08-29T18:49:00.159Z,52.23
2022-08-29T18:51:28.050Z,52.97
2022-08-29T18:53:57.673Z,54.17
2022-08-29T18:56:26.966Z,53.11
2022-08-29T18:58:58.867Z,52.34
2022-08-29T19:01:29.037Z,52.88
2022-08-29T19:03:58.999Z,51.48
2022-08-29T19:06:27.463Z,52.05
2022-08-29T19:08:56.607Z,51.83
2022-08-29T19:11:25.383Z,53.97
2022-08-29T19:15:00.836Z,52.35
2022-08-29T19:16:41.058Z,51.44
2022-08-29T19:19:13.430Z,52.11
2022-08-29T19:21:42.353Z,54.76
2022-08-29T19:24:10.276Z,53.93
2022-08-29T19:26:40.165Z,57.36
2022-08-29T19:29:12.998Z,59.15
2022-08-29T19:31:42.133Z,57.58
2022-08-29T19:34:09.670Z,54.56
2022-08-29T19:36:39.158Z,53.70
2022-08-29T19:39:06.836Z,55.09
2022-08-29T19:41:34.938Z,56.59
2022-08-29T19:44:02.847Z,56.38
2022-08-29T19:46:32.448Z,59.69
2022-08-29T19:49:00.453Z,57.90
2022-08-29T19:51:32.637Z,59.29
2022-08-29T19:54:03.228Z,60.02
2022-08-29T19:56:33.410Z,60.63
2022-08-29T19:59:01.820Z,60.71
2022-08-29T20:01:29.868Z,62.28
2022-08-29T20:03:57.758Z,63.43
2022-08-29T20:06:25.793Z,64.72
2022-08-29T20:08:54.158Z,63.81
2022-08-29T20:11:25.073Z,63.02
2022-08-29T20:13:59.405Z,63.02
2022-08-29T20:16:30.454Z,63.12
2022-08-29T20:18:58.974Z,63.72
2022-08-29T20:21:26.877Z,65.45
2022-08-29T20:23:58.349Z,65.21
2022-08-29T20:26:34.630Z,64.41
2022-08-29T20:29:05.311Z,63.48
2022-08-29T20:31:33.075Z,65.18
2022-08-29T20:34:01.023Z,66.15
2022-08-29T20:36:47.558Z,68.62
2022-08-29T20:39:18.018Z,68.34
2022-08-29T20:41:50.686Z,68.15
2022-08-29T20:44:20.407Z,68.11
2022-08-29T20:46:49.136Z,68.48
2022-08-29T20:49:19.622Z,67.86
2022-08-29T20:51:48.397Z,66.44
2022-08-29T20:54:19.272Z,64.97
2022-08-29T20:56:48.786Z,66.12
2022-08-29T20:59:16.667Z,66.87
2022-08-29T21:01:44.497Z,66.87
2022-08-29T21:04:31.542Z,66.96
2022-08-29T21:07:01.645Z,67.86
2022-08-29T21:09:29.189Z,68.47
2022-08-29T21:11:57.122Z,68.08
2022-08-29T21:14:27.333Z,68.97
2022-08-29T21:16:56.803Z,69.55
2022-08-29T21:19:27.350Z,69.66
2022-08-29T21:21:57.322Z,69.61
2022-08-29T21:24:25.180Z,69.52
2022-08-29T21:26:52.869Z,69.53
2022-08-29T21:29:20.882Z,69.19
2022-08-29T21:31:49.453Z,70.44
2022-08-29T21:34:17.408Z,71.74
2022-08-29T21:36:45.277Z,71.96
2022-08-29T21:39:13.715Z,71.41
2022-08-29T21:41:57.432Z,70.83
2022-08-29T21:44:24.834Z,71.80
2022-08-29T21:46:52.796Z,70.97
2022-08-29T21:49:21.875Z,70.39
2022-08-29T21:51:49.530Z,70.82
2022-08-29T21:54:17.572Z,69.62
2022-08-29T21:56:45.904Z,71.93
2022-08-29T21:59:14.985Z,72.22
2022-08-29T22:01:43.832Z,72.95
2022-08-29T22:04:18.667Z,71.10
2022-08-29T22:06:55.108Z,72.57
2022-08-29T22:09:23.629Z,70.53
2022-08-29T22:11:51.974Z,71.70
2022-08-29T22:14:19.396Z,69.47
2022-08-29T22:16:47.462Z,70.35
2022-08-29T22:19:16.962Z,71.72
2022-08-29T22:21:51.988Z,75.04
2022-08-29T22:24:20.104Z,73.84
2022-08-29T22:26:47.767Z,75.09
2022-08-29T22:29:16.092Z,74.81
2022-08-29T22:31:44.993Z,73.95
2022-08-29T22:34:14.407Z,75.90
2022-08-29T22:36:42.776Z,77.26
2022-08-29T22:39:10.887Z,77.61
2022-08-29T22:41:38.469Z,78.19
2022-08-29T22:46:54.702Z,79.04
2022-08-29T22:49:22.171Z,80.40
2022-08-29T22:51:50.336Z,80.11
2022-08-29T22:54:36.776Z,79.51
2022-08-29T22:57:10.246Z,80.09
2022-08-29T22:59:38.705Z,81.11
2022-08-29T23:02:07.524Z,80.12
2022-08-29T23:04:35.434Z,79.35
2022-08-29T23:07:03.946Z,76.28
2022-08-29T23:09:35.242Z,76.87
2022-08-29T23:12:05.916Z,75.30
2022-08-29T23:14:37.720Z,75.67
2022-08-29T23:17:07.075Z,71.17
2022-08-29T23:19:35.450Z,71.33
2022-08-29T23:22:03.098Z,70.21
2022-08-29T23:24:31.728Z,70.08
2022-08-29T23:26:59.277Z,70.94
2022-08-29T23:29:27.463Z,71.40
2022-08-29T23:31:55.181Z,72.37
2022-08-29T23:34:23.599Z,73.73
2022-08-29T23:36:51.133Z,74.54
2022-08-29T23:39:18.926Z,74.11
2022-08-29T23:41:46.471Z,74.54
2022-08-29T23:44:13.875Z,73.33
2022-08-29T23:46:41.681Z,71.87
2022-08-29T23:49:09.243Z,73.27
2022-08-29T23:51:36.692Z,72.59
2022-08-29T23:54:04.390Z,73.00
2022-08-29T23:56:32.132Z,73.00
2022-08-29T23:58:59.794Z,71.27
